sensor_id;sensor_type;location;lat;lon;timestamp;temperature;humidity
12922;DHT22;6528;48.086;16.282;2024-01-10T00:01:13;22.00;99.90
12922;DHT22;6528;48.086;16.282;2024-01-10T00:03:41;22.00;99.90
12922;DHT22;6528;48.086;16.282;2024-01-10T00:06:08;22.00;99.90
12922;DHT22;6528;48.086;16.282;2024-01-10T00:08:37;22.00;1.00
12922;DHT22;6528;48.086;16.282;2024-01-10T00:11:04;22.00;1.00
12922;DHT22;6528;48.086;16.282;2024-01-10T00:13:32;22.00;1.00
12922;DHT22;6528;48.086;16.282;2024-01-10T00:16:00;22.00;99.90
12922;DHT22;6528;48.086;16.282;2024-01-10T00:18:27;22.00;1.00
12922;DHT22;6528;48.086;16.282;2024-01-10T00:20:54;22.00;99.90
12922;DHT22;6528;48.086;16.282;2024-01-10T00:23:22;22.00;99.90
12922;DHT22;6528;48.086;16.282;2024-01-10T00:25:50;22.00;1.00
12922;DHT22;6528;48.086;16.282;2024-01-10T00:28:17;22.00;1.00
12922;DHT22;6528;48.086;16.282;2024-01-10T00:30:45;22.00;1.00
12922;DHT22;6528;48.086;16.282;2024-01-10T00:33:15;22.10;99.90
12922;DHT22;6528;48.086;16.282;2024-01-10T00:35:43;22.10;99.90
12922;DHT22;6528;48.086;16.282;2024-01-10T00:38:10;22.10;99.90
12922;DHT22;6528;48.086;16.282;2024-01-10T00:40:38;22.20;1.00
12922;DHT22;6528;48.086;16.282;2024-01-10T00:43:05;22.20;1.00
12922;DHT22;6528;48.086;16.282;2024-01-10T00:45:32;22.10;1.00
12922;DHT22;6528;48.086;16.282;2024-01-10T00:48:00;22.10;99.90
12922;DHT22;6528;48.086;16.282;2024-01-10T00:50:28;22.10;1.00
12922;DHT22;6528;48.086;16.282;2024-01-10T00:52:55;22.10;99.90
12922;DHT22;6528;48.086;16.282;2024-01-10T00:55:22;22.10;99.90
12922;DHT22;6528;48.086;16.282;2024-01-10T00:57:50;22.10;99.90
12922;DHT22;6528;48.086;16.282;2024-01-10T01:00:17;22.10;99.90
12922;DHT22;6528;48.086;16.282;2024-01-10T01:02:44;22.10;99.90
12922;DHT22;6528;48.086;16.282;2024-01-10T01:05:12;22.10;1.00
12922;DHT22;6528;48.086;16.282;2024-01-10T01:07:40;22.10;99.90
12922;DHT22;6528;48.086;16.282;2024-01-10T01:10:07;22.00;1.00
12922;DHT22;6528;48.086;16.282;2024-01-10T01:12:36;22.00;1.00
12922;DHT22;6528;48.086;16.282;2024-01-10T01:15:05;22.10;1.00
12922;DHT22;6528;48.086;16.282;2024-01-10T01:17:32;22.00;1.00
12922;DHT22;6528;48.086;16.282;2024-01-10T01:20:01;22.00;99.90
12922;DHT22;6528;48.086;16.282;2024-01-10T01:22:32;22.00;1.00
12922;DHT22;6528;48.086;16.282;2024-01-10T01:24:59;22.00;1.00
12922;DHT22;6528;48.086;16.282;2024-01-10T01:27:26;22.00;1.00
12922;DHT22;6528;48.086;16.282;2024-01-10T01:29:54;22.00;1.00
12922;DHT22;6528;48.086;16.282;2024-01-10T01:32:21;22.00;1.00
12922;DHT22;6528;48.086;16.282;2024-01-10T01:34:49;22.00;1.00
12922;DHT22;6528;48.086;16.282;2024-01-10T01:37:17;22.00;1.00
12922;DHT22;6528;48.086;16.282;2024-01-10T01:39:44;22.00;1.00
12922;DHT22;6528;48.086;16.282;2024-01-10T01:42:11;22.00;1.00
12922;DHT22;6528;48.086;16.282;2024-01-10T01:44:39;22.00;1.00
12922;DHT22;6528;48.086;16.282;2024-01-10T01:47:06;22.00;1.00
12922;DHT22;6528;48.086;16.282;2024-01-10T01:49:34;21.90;1.00
12922;DHT22;6528;48.086;16.282;2024-01-10T01:52:02;21.90;1.00
12922;DHT22;6528;48.086;16.282;2024-01-10T01:54:31;21.90;1.00
12922;DHT22;6528;48.086;16.282;2024-01-10T01:56:59;22.00;1.00
12922;DHT22;6528;48.086;16.282;2024-01-10T01:59:27;21.90;1.00
12922;DHT22;6528;48.086;16.282;2024-01-10T02:01:55;21.90;1.00
12922;DHT22;6528;48.086;16.282;2024-01-10T02:04:26;21.90;1.00
12922;DHT22;6528;48.086;16.282;2024-01-10T02:06:55;21.90;1.00
12922;DHT22;6528;48.086;16.282;2024-01-10T02:09:23;21.90;1.00
12922;DHT22;6528;48.086;16.282;2024-01-10T02:11:51;21.90;1.00
12922;DHT22;6528;48.086;16.282;2024-01-10T02:14:18;21.90;1.00
12922;DHT22;6528;48.086;16.282;2024-01-10T02:16:46;21.90;1.00
12922;DHT22;6528;48.086;16.282;2024-01-10T02:19:21;21.90;1.00
12922;DHT22;6528;48.086;16.282;2024-01-10T02:21:49;21.90;1.00
12922;DHT22;6528;48.086;16.282;2024-01-10T02:24:16;21.90;99.90
12922;DHT22;6528;48.086;16.282;2024-01-10T02:26:43;21.90;1.00
12922;DHT22;6528;48.086;16.282;2024-01-10T02:29:11;21.90;1.00
12922;DHT22;6528;48.086;16.282;2024-01-10T02:31:38;21.90;1.00
12922;DHT22;6528;48.086;16.282;2024-01-10T02:34:06;21.90;1.00
12922;DHT22;6528;48.086;16.282;2024-01-10T02:36:34;21.90;1.00
12922;DHT22;6528;48.086;16.282;2024-01-10T02:39:01;21.90;1.00
12922;DHT22;6528;48.086;16.282;2024-01-10T02:41:28;21.90;1.00
12922;DHT22;6528;48.086;16.282;2024-01-10T02:43:56;21.90;1.00
12922;DHT22;6528;48.086;16.282;2024-01-10T02:46:26;21.90;1.00
12922;DHT22;6528;48.086;16.282;2024-01-10T02:48:56;21.90;1.00
12922;DHT22;6528;48.086;16.282;2024-01-10T02:51:27;21.90;1.00
12922;DHT22;6528;48.086;16.282;2024-01-10T02:53:55;21.90;1.00
12922;DHT22;6528;48.086;16.282;2024-01-10T02:56:23;21.90;1.00
12922;DHT22;6528;48.086;16.282;2024-01-10T02:58:50;21.90;1.00
12922;DHT22;6528;48.086;16.282;2024-01-10T03:01:17;21.90;1.00
12922;DHT22;6528;48.086;16.282;2024-01-10T03:03:45;22.00;1.00
12922;DHT22;6528;48.086;16.282;2024-01-10T03:06:12;21.90;1.00
12922;DHT22;6528;48.086;16.282;2024-01-10T03:08:40;22.00;1.00
12922;DHT22;6528;48.086;16.282;2024-01-10T03:11:07;22.00;1.00
12922;DHT22;6528;48.086;16.282;2024-01-10T03:13:35;22.00;81.10
12922;DHT22;6528;48.086;16.282;2024-01-10T03:16:02;22.00;1.00
12922;DHT22;6528;48.086;16.282;2024-01-10T03:18:30;22.00;1.00
12922;DHT22;6528;48.086;16.282;2024-01-10T03:20:57;21.90;1.00
12922;DHT22;6528;48.086;16.282;2024-01-10T03:23:25;22.00;1.00
12922;DHT22;6528;48.086;16.282;2024-01-10T03:25:55;22.00;1.00
12922;DHT22;6528;48.086;16.282;2024-01-10T03:28:23;21.90;1.00
12922;DHT22;6528;48.086;16.282;2024-01-10T03:30:50;21.90;1.00
12922;DHT22;6528;48.086;16.282;2024-01-10T03:33:18;22.00;1.00
12922;DHT22;6528;48.086;16.282;2024-01-10T03:35:46;21.90;1.00
12922;DHT22;6528;48.086;16.282;2024-01-10T03:38:13;21.90;1.00
12922;DHT22;6528;48.086;16.282;2024-01-10T03:40:43;21.90;1.00
12922;DHT22;6528;48.086;16.282;2024-01-10T03:43:11;21.90;1.00
12922;DHT22;6528;48.086;16.282;2024-01-10T03:45:39;21.90;1.00
12922;DHT22;6528;48.086;16.282;2024-01-10T03:48:07;21.90;1.00
12922;DHT22;6528;48.086;16.282;2024-01-10T03:50:34;21.90;1.00
12922;DHT22;6528;48.086;16.282;2024-01-10T03:53:02;21.90;1.00
12922;DHT22;6528;48.086;16.282;2024-01-10T03:55:30;21.90;1.00
12922;DHT22;6528;48.086;16.282;2024-01-10T03:57:58;21.90;1.00
12922;DHT22;6528;48.086;16.282;2024-01-10T04:00:26;21.90;1.00
12922;DHT22;6528;48.086;16.282;2024-01-10T04:02:53;21.90;1.00
12922;DHT22;6528;48.086;16.282;2024-01-10T04:05:21;21.90;1.00
12922;DHT22;6528;48.086;16.282;2024-01-10T04:07:48;21.90;1.00
12922;DHT22;6528;48.086;16.282;2024-01-10T04:10:16;21.90;1.00
12922;DHT22;6528;48.086;16.282;2024-01-10T04:12:44;21.90;1.00
12922;DHT22;6528;48.086;16.282;2024-01-10T04:15:12;21.90;1.00
12922;DHT22;6528;48.086;16.282;2024-01-10T04:17:39;21.90;1.00
12922;DHT22;6528;48.086;16.282;2024-01-10T04:20:09;21.90;1.00
12922;DHT22;6528;48.086;16.282;2024-01-10T04:22:37;21.90;1.00
12922;DHT22;6528;48.086;16.282;2024-01-10T04:25:06;21.90;1.00
12922;DHT22;6528;48.086;16.282;2024-01-10T04:27:33;21.90;1.00
12922;DHT22;6528;48.086;16.282;2024-01-10T04:30:01;21.90;1.00
12922;DHT22;6528;48.086;16.282;2024-01-10T04:32:28;21.90;1.00
12922;DHT22;6528;48.086;16.282;2024-01-10T04:34:56;21.90;1.00
12922;DHT22;6528;48.086;16.282;2024-01-10T04:37:23;21.90;1.00
12922;DHT22;6528;48.086;16.282;2024-01-10T04:39:51;21.90;1.00
12922;DHT22;6528;48.086;16.282;2024-01-10T04:42:18;21.90;1.00
12922;DHT22;6528;48.086;16.282;2024-01-10T04:44:45;21.90;1.00
12922;DHT22;6528;48.086;16.282;2024-01-10T04:47:13;21.90;1.00
12922;DHT22;6528;48.086;16.282;2024-01-10T04:49:40;21.90;1.00
12922;DHT22;6528;48.086;16.282;2024-01-10T04:52:07;21.90;1.00
12922;DHT22;6528;48.086;16.282;2024-01-10T04:54:34;21.90;1.00
12922;DHT22;6528;48.086;16.282;2024-01-10T04:57:02;21.90;1.00
12922;DHT22;6528;48.086;16.282;2024-01-10T04:59:29;21.90;1.00
12922;DHT22;6528;48.086;16.282;2024-01-10T05:01:57;21.90;1.00
12922;DHT22;6528;48.086;16.282;2024-01-10T05:04:24;21.90;1.00
12922;DHT22;6528;48.086;16.282;2024-01-10T05:06:52;21.90;1.00
12922;DHT22;6528;48.086;16.282;2024-01-10T05:09:19;21.90;1.00
12922;DHT22;6528;48.086;16.282;2024-01-10T05:11:46;21.90;1.00
12922;DHT22;6528;48.086;16.282;2024-01-10T05:14:15;21.90;1.00
12922;DHT22;6528;48.086;16.282;2024-01-10T05:16:42;21.90;99.90
12922;DHT22;6528;48.086;16.282;2024-01-10T05:19:10;21.90;1.00
12922;DHT22;6528;48.086;16.282;2024-01-10T05:21:37;21.90;1.00
12922;DHT22;6528;48.086;16.282;2024-01-10T05:24:05;21.90;99.90
12922;DHT22;6528;48.086;16.282;2024-01-10T05:26:33;21.90;1.00
12922;DHT22;6528;48.086;16.282;2024-01-10T05:29:00;21.90;1.00
12922;DHT22;6528;48.086;16.282;2024-01-10T05:31:27;21.90;1.00
12922;DHT22;6528;48.086;16.282;2024-01-10T05:33:55;21.90;1.00
12922;DHT22;6528;48.086;16.282;2024-01-10T05:36:23;21.90;1.00
12922;DHT22;6528;48.086;16.282;2024-01-10T05:38:51;21.90;1.00
12922;DHT22;6528;48.086;16.282;2024-01-10T05:41:19;21.90;1.00
12922;DHT22;6528;48.086;16.282;2024-01-10T05:43:46;21.90;1.00
12922;DHT22;6528;48.086;16.282;2024-01-10T05:46:13;21.90;1.00
12922;DHT22;6528;48.086;16.282;2024-01-10T05:48:44;21.90;1.00
12922;DHT22;6528;48.086;16.282;2024-01-10T05:51:11;21.90;99.90
12922;DHT22;6528;48.086;16.282;2024-01-10T05:53:39;21.90;99.90
12922;DHT22;6528;48.086;16.282;2024-01-10T05:56:07;21.90;1.00
12922;DHT22;6528;48.086;16.282;2024-01-10T05:58:34;21.90;1.00
12922;DHT22;6528;48.086;16.282;2024-01-10T06:01:02;21.90;99.90
12922;DHT22;6528;48.086;16.282;2024-01-10T06:03:30;21.90;1.00
12922;DHT22;6528;48.086;16.282;2024-01-10T06:05:58;21.90;1.00
12922;DHT22;6528;48.086;16.282;2024-01-10T06:08:25;21.90;1.00
12922;DHT22;6528;48.086;16.282;2024-01-10T06:10:53;21.90;1.00
12922;DHT22;6528;48.086;16.282;2024-01-10T06:13:20;21.90;1.00
12922;DHT22;6528;48.086;16.282;2024-01-10T06:15:48;21.90;1.00
12922;DHT22;6528;48.086;16.282;2024-01-10T06:18:16;21.90;1.00
12922;DHT22;6528;48.086;16.282;2024-01-10T06:20:43;21.90;1.00
12922;DHT22;6528;48.086;16.282;2024-01-10T06:23:11;21.90;1.00
12922;DHT22;6528;48.086;16.282;2024-01-10T06:25:38;21.90;1.00
12922;DHT22;6528;48.086;16.282;2024-01-10T06:28:06;22.00;1.00
12922;DHT22;6528;48.086;16.282;2024-01-10T06:30:33;22.00;1.00
12922;DHT22;6528;48.086;16.282;2024-01-10T06:33:02;22.10;1.00
12922;DHT22;6528;48.086;16.282;2024-01-10T06:35:31;22.20;1.00
12922;DHT22;6528;48.086;16.282;2024-01-10T06:37:59;22.20;1.00
12922;DHT22;6528;48.086;16.282;2024-01-10T06:40:26;22.30;1.00
12922;DHT22;6528;48.086;16.282;2024-01-10T06:42:53;22.30;1.00
12922;DHT22;6528;48.086;16.282;2024-01-10T06:45:21;22.40;1.00
12922;DHT22;6528;48.086;16.282;2024-01-10T06:47:48;22.40;1.00
12922;DHT22;6528;48.086;16.282;2024-01-10T06:50:16;22.40;1.00
12922;DHT22;6528;48.086;16.282;2024-01-10T06:52:44;22.50;99.90
12922;DHT22;6528;48.086;16.282;2024-01-10T06:55:11;22.50;99.90
12922;DHT22;6528;48.086;16.282;2024-01-10T06:57:38;22.50;1.00
12922;DHT22;6528;48.086;16.282;2024-01-10T07:00:06;22.60;1.00
12922;DHT22;6528;48.086;16.282;2024-01-10T07:02:38;22.60;1.00
12922;DHT22;6528;48.086;16.282;2024-01-10T07:05:09;22.60;1.00
12922;DHT22;6528;48.086;16.282;2024-01-10T07:07:37;22.60;1.00
12922;DHT22;6528;48.086;16.282;2024-01-10T07:10:05;22.60;99.90
12922;DHT22;6528;48.086;16.282;2024-01-10T07:12:36;22.60;99.90
12922;DHT22;6528;48.086;16.282;2024-01-10T07:15:03;22.70;1.00
12922;DHT22;6528;48.086;16.282;2024-01-10T07:17:31;22.70;99.90
12922;DHT22;6528;48.086;16.282;2024-01-10T07:19:59;22.70;99.90
12922;DHT22;6528;48.086;16.282;2024-01-10T07:22:26;22.70;99.90
12922;DHT22;6528;48.086;16.282;2024-01-10T07:24:53;22.70;99.90
12922;DHT22;6528;48.086;16.282;2024-01-10T07:27:21;22.70;99.90
12922;DHT22;6528;48.086;16.282;2024-01-10T07:29:48;22.70;99.90
12922;DHT22;6528;48.086;16.282;2024-01-10T07:32:16;22.80;99.90
12922;DHT22;6528;48.086;16.282;2024-01-10T07:34:43;22.70;99.90
12922;DHT22;6528;48.086;16.282;2024-01-10T07:37:13;22.80;99.90
12922;DHT22;6528;48.086;16.282;2024-01-10T07:39:40;22.80;99.90
12922;DHT22;6528;48.086;16.282;2024-01-10T07:42:08;22.80;99.90
12922;DHT22;6528;48.086;16.282;2024-01-10T07:44:35;22.80;99.90
12922;DHT22;6528;48.086;16.282;2024-01-10T07:47:02;22.80;99.90
12922;DHT22;6528;48.086;16.282;2024-01-10T07:49:30;22.80;99.90
12922;DHT22;6528;48.086;16.282;2024-01-10T07:51:59;22.80;99.90
12922;DHT22;6528;48.086;16.282;2024-01-10T07:54:26;22.80;99.90
12922;DHT22;6528;48.086;16.282;2024-01-10T07:56:54;22.80;99.90
12922;DHT22;6528;48.086;16.282;2024-01-10T07:59:21;22.80;1.00
12922;DHT22;6528;48.086;16.282;2024-01-10T08:01:56;22.80;99.90
12922;DHT22;6528;48.086;16.282;2024-01-10T08:04:25;22.80;99.90
12922;DHT22;6528;48.086;16.282;2024-01-10T08:06:53;22.80;99.90
12922;DHT22;6528;48.086;16.282;2024-01-10T08:09:21;22.80;99.90
12922;DHT22;6528;48.086;16.282;2024-01-10T08:11:50;22.80;99.90
12922;DHT22;6528;48.086;16.282;2024-01-10T08:14:18;22.80;99.90
12922;DHT22;6528;48.086;16.282;2024-01-10T08:16:45;22.80;99.90
12922;DHT22;6528;48.086;16.282;2024-01-10T08:19:15;22.80;99.90
12922;DHT22;6528;48.086;16.282;2024-01-10T08:21:42;22.80;99.90
12922;DHT22;6528;48.086;16.282;2024-01-10T08:24:09;22.90;99.90
12922;DHT22;6528;48.086;16.282;2024-01-10T08:26:36;22.90;1.00
12922;DHT22;6528;48.086;16.282;2024-01-10T08:29:05;22.90;99.90
12922;DHT22;6528;48.086;16.282;2024-01-10T08:31:32;22.90;1.00
12922;DHT22;6528;48.086;16.282;2024-01-10T08:34:00;23.00;1.00
12922;DHT22;6528;48.086;16.282;2024-01-10T08:36:27;23.00;1.00
12922;DHT22;6528;48.086;16.282;2024-01-10T08:38:54;23.10;1.00
12922;DHT22;6528;48.086;16.282;2024-01-10T08:41:22;23.10;1.00
12922;DHT22;6528;48.086;16.282;2024-01-10T08:43:49;23.20;1.00
12922;DHT22;6528;48.086;16.282;2024-01-10T08:46:18;23.20;1.00
12922;DHT22;6528;48.086;16.282;2024-01-10T08:48:46;23.30;1.00
12922;DHT22;6528;48.086;16.282;2024-01-10T08:51:14;23.30;1.00
12922;DHT22;6528;48.086;16.282;2024-01-10T08:53:45;23.40;1.00
12922;DHT22;6528;48.086;16.282;2024-01-10T08:56:12;23.40;1.00
12922;DHT22;6528;48.086;16.282;2024-01-10T08:58:39;23.50;1.00
12922;DHT22;6528;48.086;16.282;2024-01-10T09:01:07;23.50;1.00
12922;DHT22;6528;48.086;16.282;2024-01-10T09:03:35;23.50;1.00
12922;DHT22;6528;48.086;16.282;2024-01-10T09:06:03;23.50;1.00
12922;DHT22;6528;48.086;16.282;2024-01-10T09:08:37;23.50;99.90
12922;DHT22;6528;48.086;16.282;2024-01-10T09:11:05;23.50;1.00
12922;DHT22;6528;48.086;16.282;2024-01-10T09:13:32;23.60;1.00
12922;DHT22;6528;48.086;16.282;2024-01-10T09:16:01;23.60;1.00
12922;DHT22;6528;48.086;16.282;2024-01-10T09:18:28;23.60;1.00
12922;DHT22;6528;48.086;16.282;2024-01-10T09:20:56;23.60;1.00
12922;DHT22;6528;48.086;16.282;2024-01-10T09:23:24;23.60;1.00
12922;DHT22;6528;48.086;16.282;2024-01-10T09:25:51;23.60;1.00
12922;DHT22;6528;48.086;16.282;2024-01-10T09:28:20;23.70;1.00
12922;DHT22;6528;48.086;16.282;2024-01-10T09:30:47;23.60;1.00
12922;DHT22;6528;48.086;16.282;2024-01-10T09:33:14;23.60;1.00
12922;DHT22;6528;48.086;16.282;2024-01-10T09:35:42;23.70;1.00
12922;DHT22;6528;48.086;16.282;2024-01-10T09:38:10;23.70;99.90
12922;DHT22;6528;48.086;16.282;2024-01-10T09:40:38;23.70;1.00
12922;DHT22;6528;48.086;16.282;2024-01-10T09:43:06;23.70;1.00
12922;DHT22;6528;48.086;16.282;2024-01-10T09:45:43;23.70;1.00
12922;DHT22;6528;48.086;16.282;2024-01-10T09:48:14;23.80;1.00
12922;DHT22;6528;48.086;16.282;2024-01-10T09:50:42;23.80;1.00
12922;DHT22;6528;48.086;16.282;2024-01-10T09:53:17;23.80;1.00
12922;DHT22;6528;48.086;16.282;2024-01-10T09:55:48;23.80;99.90
12922;DHT22;6528;48.086;16.282;2024-01-10T09:58:16;23.80;1.00
12922;DHT22;6528;48.086;16.282;2024-01-10T10:00:44;23.80;1.00
12922;DHT22;6528;48.086;16.282;2024-01-10T10:03:11;23.80;1.00
12922;DHT22;6528;48.086;16.282;2024-01-10T10:05:40;23.80;1.00
12922;DHT22;6528;48.086;16.282;2024-01-10T10:08:14;23.80;1.00
12922;DHT22;6528;48.086;16.282;2024-01-10T10:10:50;23.80;1.00
12922;DHT22;6528;48.086;16.282;2024-01-10T10:13:28;23.80;1.00
12922;DHT22;6528;48.086;16.282;2024-01-10T10:16:03;23.70;1.00
12922;DHT22;6528;48.086;16.282;2024-01-10T10:18:31;23.70;99.90
12922;DHT22;6528;48.086;16.282;2024-01-10T10:21:26;23.70;1.00
12922;DHT22;6528;48.086;16.282;2024-01-10T10:24:02;23.70;99.90
12922;DHT22;6528;48.086;16.282;2024-01-10T10:26:33;23.60;99.90
12922;DHT22;6528;48.086;16.282;2024-01-10T10:29:02;23.60;99.90
12922;DHT22;6528;48.086;16.282;2024-01-10T10:31:30;23.60;99.90
12922;DHT22;6528;48.086;16.282;2024-01-10T10:34:00;23.60;99.90
12922;DHT22;6528;48.086;16.282;2024-01-10T10:36:33;23.60;99.90
12922;DHT22;6528;48.086;16.282;2024-01-10T10:39:00;23.60;99.90
12922;DHT22;6528;48.086;16.282;2024-01-10T10:41:31;23.60;99.90
12922;DHT22;6528;48.086;16.282;2024-01-10T10:44:00;23.60;99.90
12922;DHT22;6528;48.086;16.282;2024-01-10T10:46:31;23.60;99.90
12922;DHT22;6528;48.086;16.282;2024-01-10T10:48:59;23.50;99.90
12922;DHT22;6528;48.086;16.282;2024-01-10T10:51:33;23.50;99.90
12922;DHT22;6528;48.086;16.282;2024-01-10T10:54:03;23.50;99.90
12922;DHT22;6528;48.086;16.282;2024-01-10T10:56:33;23.50;99.90
12922;DHT22;6528;48.086;16.282;2024-01-10T10:59:04;23.50;99.90
12922;DHT22;6528;48.086;16.282;2024-01-10T11:01:32;23.40;99.90
12922;DHT22;6528;48.086;16.282;2024-01-10T11:04:01;23.40;99.90
12922;DHT22;6528;48.086;16.282;2024-01-10T11:06:29;23.40;99.90
12922;DHT22;6528;48.086;16.282;2024-01-10T11:09:06;23.40;99.90
12922;DHT22;6528;48.086;16.282;2024-01-10T11:11:50;23.40;99.90
12922;DHT22;6528;48.086;16.282;2024-01-10T11:25:21;23.30;99.90
12922;DHT22;6528;48.086;16.282;2024-01-10T11:27:52;23.20;1.00
12922;DHT22;6528;48.086;16.282;2024-01-10T11:30:37;23.20;1.00
12922;DHT22;6528;48.086;16.282;2024-01-10T11:36:16;23.20;1.00
12922;DHT22;6528;48.086;16.282;2024-01-10T11:41:28;23.10;1.00
12922;DHT22;6528;48.086;16.282;2024-01-10T11:46:40;23.10;1.00
12922;DHT22;6528;48.086;16.282;2024-01-10T11:49:12;23.10;1.00
12922;DHT22;6528;48.086;16.282;2024-01-10T11:51:53;23.10;1.00
12922;DHT22;6528;48.086;16.282;2024-01-10T11:54:41;23.00;1.00
12922;DHT22;6528;48.086;16.282;2024-01-10T11:57:25;23.00;1.00
12922;DHT22;6528;48.086;16.282;2024-01-10T11:59:54;23.00;1.00
12922;DHT22;6528;48.086;16.282;2024-01-10T12:02:23;23.00;1.00
12922;DHT22;6528;48.086;16.282;2024-01-10T12:04:54;23.00;1.00
12922;DHT22;6528;48.086;16.282;2024-01-10T12:07:23;23.00;1.00
12922;DHT22;6528;48.086;16.282;2024-01-10T12:09:55;23.00;1.00
12922;DHT22;6528;48.086;16.282;2024-01-10T12:12:23;23.00;1.00
12922;DHT22;6528;48.086;16.282;2024-01-10T12:14:50;22.90;1.00
12922;DHT22;6528;48.086;16.282;2024-01-10T12:17:18;22.90;1.00
12922;DHT22;6528;48.086;16.282;2024-01-10T12:19:46;22.90;1.00
12922;DHT22;6528;48.086;16.282;2024-01-10T12:22:19;22.90;1.00
12922;DHT22;6528;48.086;16.282;2024-01-10T12:24:49;22.90;1.00
12922;DHT22;6528;48.086;16.282;2024-01-10T12:27:19;22.90;1.00
12922;DHT22;6528;48.086;16.282;2024-01-10T12:29:49;22.90;1.00
12922;DHT22;6528;48.086;16.282;2024-01-10T12:32:19;22.80;99.90
12922;DHT22;6528;48.086;16.282;2024-01-10T12:34:48;22.80;1.00
12922;DHT22;6528;48.086;16.282;2024-01-10T12:37:15;22.80;1.00
12922;DHT22;6528;48.086;16.282;2024-01-10T12:39:43;22.80;1.00
12922;DHT22;6528;48.086;16.282;2024-01-10T12:42:10;22.80;1.00
12922;DHT22;6528;48.086;16.282;2024-01-10T12:44:42;22.80;1.00
12922;DHT22;6528;48.086;16.282;2024-01-10T12:47:21;22.80;1.00
12922;DHT22;6528;48.086;16.282;2024-01-10T12:49:50;22.80;1.00
12922;DHT22;6528;48.086;16.282;2024-01-10T12:52:18;22.80;1.00
12922;DHT22;6528;48.086;16.282;2024-01-10T12:54:51;22.80;1.00
12922;DHT22;6528;48.086;16.282;2024-01-10T12:57:19;22.70;1.00
12922;DHT22;6528;48.086;16.282;2024-01-10T12:59:46;22.70;1.00
12922;DHT22;6528;48.086;16.282;2024-01-10T13:02:13;22.70;1.00
12922;DHT22;6528;48.086;16.282;2024-01-10T13:04:41;22.70;1.00
12922;DHT22;6528;48.086;16.282;2024-01-10T13:07:08;22.70;1.00
12922;DHT22;6528;48.086;16.282;2024-01-10T13:09:36;22.60;1.00
12922;DHT22;6528;48.086;16.282;2024-01-10T13:12:04;22.60;1.00
12922;DHT22;6528;48.086;16.282;2024-01-10T13:14:32;22.60;1.00
12922;DHT22;6528;48.086;16.282;2024-01-10T13:17:00;22.60;99.90
12922;DHT22;6528;48.086;16.282;2024-01-10T13:19:27;22.50;1.00
12922;DHT22;6528;48.086;16.282;2024-01-10T13:21:55;22.50;99.90
12922;DHT22;6528;48.086;16.282;2024-01-10T13:24:22;22.50;1.00
12922;DHT22;6528;48.086;16.282;2024-01-10T13:26:50;22.50;99.90
12922;DHT22;6528;48.086;16.282;2024-01-10T13:29:17;22.50;1.00
12922;DHT22;6528;48.086;16.282;2024-01-10T13:31:44;22.50;1.00
12922;DHT22;6528;48.086;16.282;2024-01-10T13:34:12;22.50;1.00
12922;DHT22;6528;48.086;16.282;2024-01-10T13:36:39;22.40;1.00
12922;DHT22;6528;48.086;16.282;2024-01-10T13:39:07;22.40;1.00
12922;DHT22;6528;48.086;16.282;2024-01-10T13:41:34;22.40;99.90
12922;DHT22;6528;48.086;16.282;2024-01-10T13:44:02;22.40;1.00
12922;DHT22;6528;48.086;16.282;2024-01-10T13:46:32;22.40;1.00
12922;DHT22;6528;48.086;16.282;2024-01-10T13:49:01;22.40;1.00
12922;DHT22;6528;48.086;16.282;2024-01-10T13:51:28;22.30;1.00
12922;DHT22;6528;48.086;16.282;2024-01-10T13:53:56;22.40;1.00
12922;DHT22;6528;48.086;16.282;2024-01-10T13:56:24;22.40;1.00
12922;DHT22;6528;48.086;16.282;2024-01-10T13:58:51;22.30;1.00
12922;DHT22;6528;48.086;16.282;2024-01-10T14:01:19;22.30;1.00
12922;DHT22;6528;48.086;16.282;2024-01-10T14:03:46;22.30;1.00
12922;DHT22;6528;48.086;16.282;2024-01-10T14:06:14;22.30;1.00
12922;DHT22;6528;48.086;16.282;2024-01-10T14:08:41;22.30;1.00
12922;DHT22;6528;48.086;16.282;2024-01-10T14:11:10;22.30;1.00
12922;DHT22;6528;48.086;16.282;2024-01-10T14:13:38;22.30;1.00
12922;DHT22;6528;48.086;16.282;2024-01-10T14:16:05;22.20;1.00
12922;DHT22;6528;48.086;16.282;2024-01-10T14:18:33;22.20;1.00
12922;DHT22;6528;48.086;16.282;2024-01-10T14:21:01;22.20;1.00
12922;DHT22;6528;48.086;16.282;2024-01-10T14:23:29;22.20;1.00
12922;DHT22;6528;48.086;16.282;2024-01-10T14:25:56;22.20;1.00
12922;DHT22;6528;48.086;16.282;2024-01-10T14:28:24;22.20;1.00
12922;DHT22;6528;48.086;16.282;2024-01-10T14:30:51;22.20;1.00
12922;DHT22;6528;48.086;16.282;2024-01-10T14:33:30;22.20;1.00
12922;DHT22;6528;48.086;16.282;2024-01-10T14:36:00;22.20;1.00
12922;DHT22;6528;48.086;16.282;2024-01-10T14:38:27;22.20;1.00
12922;DHT22;6528;48.086;16.282;2024-01-10T14:40:55;22.10;1.00
12922;DHT22;6528;48.086;16.282;2024-01-10T14:43:22;22.10;1.00
12922;DHT22;6528;48.086;16.282;2024-01-10T14:45:50;22.10;1.00
12922;DHT22;6528;48.086;16.282;2024-01-10T14:48:17;22.10;1.00
12922;DHT22;6528;48.086;16.282;2024-01-10T14:50:46;22.10;99.90
12922;DHT22;6528;48.086;16.282;2024-01-10T14:53:14;22.10;99.90
12922;DHT22;6528;48.086;16.282;2024-01-10T14:55:42;22.10;1.00
12922;DHT22;6528;48.086;16.282;2024-01-10T14:58:09;22.10;1.00
12922;DHT22;6528;48.086;16.282;2024-01-10T15:00:36;22.10;99.90
12922;DHT22;6528;48.086;16.282;2024-01-10T15:03:04;22.10;99.90
12922;DHT22;6528;48.086;16.282;2024-01-10T15:05:41;22.10;99.90
12922;DHT22;6528;48.086;16.282;2024-01-10T15:08:10;22.10;99.90
12922;DHT22;6528;48.086;16.282;2024-01-10T15:10:38;22.00;1.00
12922;DHT22;6528;48.086;16.282;2024-01-10T15:13:10;22.00;99.90
12922;DHT22;6528;48.086;16.282;2024-01-10T15:15:38;22.10;1.00
12922;DHT22;6528;48.086;16.282;2024-01-10T15:18:06;22.10;99.90
12922;DHT22;6528;48.086;16.282;2024-01-10T15:20:33;22.00;99.90
12922;DHT22;6528;48.086;16.282;2024-01-10T15:23:01;22.10;99.90
12922;DHT22;6528;48.086;16.282;2024-01-10T15:25:28;22.00;99.90
12922;DHT22;6528;48.086;16.282;2024-01-10T15:27:56;22.00;99.90
12922;DHT22;6528;48.086;16.282;2024-01-10T15:30:23;22.00;99.90
12922;DHT22;6528;48.086;16.282;2024-01-10T15:33:07;22.00;99.90
12922;DHT22;6528;48.086;16.282;2024-01-10T15:35:36;22.00;99.90
12922;DHT22;6528;48.086;16.282;2024-01-10T15:38:04;22.00;99.90
12922;DHT22;6528;48.086;16.282;2024-01-10T15:40:31;22.00;99.90
12922;DHT22;6528;48.086;16.282;2024-01-10T15:42:59;22.00;99.90
12922;DHT22;6528;48.086;16.282;2024-01-10T15:45:26;21.90;99.90
12922;DHT22;6528;48.086;16.282;2024-01-10T15:47:55;21.90;99.90
12922;DHT22;6528;48.086;16.282;2024-01-10T15:50:22;21.90;99.90
12922;DHT22;6528;48.086;16.282;2024-01-10T15:52:50;21.90;99.90
12922;DHT22;6528;48.086;16.282;2024-01-10T15:55:18;21.90;99.90
12922;DHT22;6528;48.086;16.282;2024-01-10T15:57:46;21.90;99.90
12922;DHT22;6528;48.086;16.282;2024-01-10T16:00:14;21.90;99.90
12922;DHT22;6528;48.086;16.282;2024-01-10T16:02:41;21.90;99.90
12922;DHT22;6528;48.086;16.282;2024-01-10T16:05:09;21.90;99.90
12922;DHT22;6528;48.086;16.282;2024-01-10T16:07:37;21.90;99.90
12922;DHT22;6528;48.086;16.282;2024-01-10T16:10:04;21.90;99.90